Time;durP1;ratioP1;P1;durP2;ratioP2;P2;SDS_P1;SDS_P2;PMS_P1;PMS_P2;Temp;Humidity;BMP_temperature;BMP_pressure;BME280_temperature;BME280_humidity;BME280_pressure;Samples;Min_cycle;Max_cycle;Signal;HPM_P1;HPM_P2
2022/10/04 00:04:03;;;;;;;10.65;4.10;;;;;;;18.67;69.13;99147.92;4329892;82;28592;-79
2022/10/04 00:10:21;;;;;;;12.63;4.30;;;;;;;18.74;69.33;99149.77;4289386;81;28502;-79
2022/10/04 00:16:35;;;;;;;10.95;4.03;;;;;;;18.89;68.70;99150.77;4191913;83;28523;-79
2022/10/04 00:22:38;;;;;;;11.27;4.07;;;;;;;18.70;69.75;99146.56;4299912;82;37741;-79
2022/10/04 00:28:45;;;;;;;10.45;4.37;;;;;;;18.69;70.00;99149.81;4218783;83;28520;-79
2022/10/04 00:34:52;;;;;;;9.23;4.28;;;;;;;18.78;69.76;99152.74;4371028;79;28527;-80
2022/10/04 00:41:05;;;;;;;8.23;3.92;;;;;;;18.75;70.26;99145.14;4380099;79;28581;-79
2022/10/04 00:47:33;;;;;;;14.15;4.55;;;;;;;18.56;71.80;99124.59;4379951;79;28508;-79
2022/10/04 00:54:20;;;;;;;12.40;4.75;;;;;;;18.32;74.24;99119.27;4309629;82;28526;-78
2022/10/04 01:00:21;;;;;;;10.05;4.25;;;;;;;18.25;74.68;99120.95;4313139;81;28587;-78
2022/10/04 01:06:23;;;;;;;11.28;4.65;;;;;;;18.49;73.13;99133.08;4322266;80;28507;-78
2022/10/04 01:13:05;;;;;;;9.58;4.33;;;;;;;18.55;72.66;99133.85;4340842;80;28605;-80
2022/10/04 01:19:27;;;;;;;8.63;4.15;;;;;;;18.81;70.98;99137.22;4323953;80;28513;-79
2022/10/04 01:25:50;;;;;;;9.75;4.47;;;;;;;18.71;71.21;99131.84;4343613;80;28561;-78
2022/10/04 01:31:54;;;;;;;7.37;3.70;;;;;;;18.72;71.12;99141.07;4295387;81;28537;-79
2022/10/04 01:37:55;;;;;;;13.05;4.53;;;;;;;18.74;70.83;99135.35;4286355;81;28569;-78
2022/10/04 01:44:01;;;;;;;12.37;4.80;;;;;;;18.47;71.69;99139.33;4317293;81;28474;-78
2022/10/04 01:50:08;;;;;;;11.80;4.90;;;;;;;18.14;72.95;99134.88;4332864;81;28505;-79
2022/10/04 01:56:14;;;;;;;11.50;5.05;;;;;;;18.36;72.40;99136.66;4348337;79;28538;-77
2022/10/04 02:02:45;;;;;;;8.65;4.62;;;;;;;18.48;72.05;99138.22;4353139;81;28526;-76
2022/10/04 02:08:50;;;;;;;8.63;4.62;;;;;;;18.49;72.46;99130.35;4357092;80;28568;-77
2022/10/04 02:14:54;;;;;;;13.28;5.42;;;;;;;18.05;74.67;99127.84;4345550;81;28547;-77
2022/10/04 02:20:58;;;;;;;12.15;5.50;;;;;;;18.24;74.54;99128.02;4315264;81;28527;-78
2022/10/04 02:27:00;;;;;;;8.55;3.92;;;;;;;17.89;75.42;99126.50;4315271;81;28570;-78
2022/10/04 02:33:01;;;;;;;8.85;4.08;;;;;;;17.83;75.51;99137.15;4315609;81;28530;-78
2022/10/04 02:39:25;;;;;;;9.23;3.65;;;;;;;17.91;74.23;99120.80;4316551;81;28509;-78
2022/10/04 02:45:47;;;;;;;5.12;3.22;;;;;;;18.06;72.50;99122.67;4317133;81;28547;-80
2022/10/04 02:52:39;;;;;;;12.18;3.52;;;;;;;17.81;72.21;99129.81;4316059;81;28525;-77
2022/10/04 02:58:44;;;;;;;8.18;3.47;;;;;;;17.60;73.22;99129.88;4316380;81;28573;-78
2022/10/04 03:04:47;;;;;;;8.95;3.70;;;;;;;17.23;76.63;99134.55;4296932;81;28521;-77
2022/10/04 03:10:49;;;;;;;6.70;3.00;;;;;;;17.24;76.78;99132.11;4319150;81;28522;-77
2022/10/04 03:16:56;;;;;;;7.58;3.00;;;;;;;17.82;74.39;99139.59;4319503;81;28509;-77
2022/10/04 03:22:57;;;;;;;;;;;;;;;17.82;74.42;99143.12;4322462;81;28522;-77
2022/10/04 03:28:59;;;;;;;10.58;3.50;;;;;;;18.20;72.34;99137.84;4317590;81;20248;-78
2022/10/04 03:35:06;;;;;;;7.65;3.10;;;;;;;18.15;71.47;99144.12;4316364;81;28560;-78
2022/10/04 03:41:10;;;;;;;8.18;2.98;;;;;;;18.01;71.47;99126.19;4284596;81;28619;-79
2022/10/04 03:47:23;;;;;;;10.18;3.30;;;;;;;18.04;71.78;99123.50;4316186;81;28610;-79
2022/10/04 03:53:36;;;;;;;6.10;2.70;;;;;;;17.79;73.34;99134.69;4330305;81;28475;-78
2022/10/04 03:59:38;;;;;;;6.20;2.17;;;;;;;17.47;74.22;99144.02;4379461;80;28549;-80
2022/10/04 04:05:48;;;;;;;8.03;2.22;;;;;;;17.59;73.02;99150.53;4324894;81;28524;-79
2022/10/04 04:11:52;;;;;;;8.28;2.37;;;;;;;17.87;71.65;99159.17;4319115;81;28572;-80
2022/10/04 04:17:56;;;;;;;9.28;2.40;;;;;;;17.83;71.46;99158.34;4305567;80;28553;-80
2022/10/04 04:24:08;;;;;;;5.58;2.40;;;;;;;18.06;70.34;99152.03;4247805;82;28519;-80
2022/10/04 04:30:15;;;;;;;8.13;2.72;;;;;;;18.11;69.83;99164.27;4332337;81;28526;-77
2022/10/04 04:36:17;;;;;;;7.10;2.55;;;;;;;18.24;69.69;99168.30;4349663;79;28545;-79
2022/10/04 04:42:32;;;;;;;7.47;2.10;;;;;;;18.27;68.84;99167.47;4321914;81;28548;-83
2022/10/04 04:48:35;;;;;;;5.83;2.42;;;;;;;18.27;68.73;99176.44;4322080;81;28552;-85
2022/10/04 04:54:37;;;;;;;5.35;2.47;;;;;;;17.93;69.70;99186.07;4329109;79;28523;-82
2022/10/04 05:00:41;;;;;;;9.25;3.40;;;;;;;17.45;71.47;99186.97;4354340;81;28614;-81
2022/10/04 05:06:46;;;;;;;7.58;3.00;;;;;;;17.93;71.54;99192.05;4332818;80;28505;-82
2022/10/04 05:12:48;;;;;;;6.42;3.20;;;;;;;17.97;71.23;99198.58;4338135;80;28512;-82
2022/10/04 05:19:01;;;;;;;8.83;3.37;;;;;;;18.28;70.60;99205.30;4341726;79;28530;-81
2022/10/04 05:25:08;;;;;;;7.35;2.90;;;;;;;18.87;68.63;99210.97;4320222;81;28532;-80
2022/10/04 05:31:38;;;;;;;9.40;3.80;;;;;;;18.60;68.04;99213.59;4331372;81;28542;-83
2022/10/04 05:38:15;;;;;;;10.82;3.62;;;;;;;18.51;68.73;99220.15;4317061;81;28558;-80
2022/10/04 05:44:30;;;;;;;9.93;2.95;;;;;;;18.34;69.01;99230.59;4299056;81;28516;-83
2022/10/04 05:50:42;;;;;;;8.90;3.20;;;;;;;18.65;68.27;99240.78;4304002;81;28527;-83
2022/10/04 05:57:28;;;;;;;8.35;2.67;;;;;;;18.55;68.51;99242.19;4374063;81;28523;-83
2022/10/04 06:04:06;;;;;;;10.40;3.45;;;;;;;18.90;66.73;99243.12;4303277;81;28494;-83
2022/10/04 06:10:49;;;;;;;8.10;2.52;;;;;;;18.97;66.33;99263.23;4299318;81;28564;-83
2022/10/04 06:17:32;;;;;;;8.80;2.85;;;;;;;18.73;66.26;99270.69;4299891;83;28513;-83
2022/10/04 06:23:38;;;;;;;7.62;3.05;;;;;;;18.90;66.37;99287.23;4296992;80;28541;-83
2022/10/04 06:29:48;;;;;;;10.70;3.47;;;;;;;19.33;65.08;99286.18;4264634;83;28490;-83
2022/10/04 06:36:13;;;;;;;7.80;2.77;;;;;;;19.57;64.39;99284.09;4270770;81;33711;-83
2022/10/04 06:42:51;;;;;;;7.05;2.62;;;;;;;19.55;63.70;99290.95;4349743;81;28507;-83
2022/10/04 06:49:08;;;;;;;8.50;3.10;;;;;;;19.79;63.33;99297.27;4243453;84;28611;-83
2022/10/04 06:55:49;;;;;;;9.28;2.98;;;;;;;19.72;63.05;99304.97;4167701;85;28501;-83
2022/10/04 07:02:02;;;;;;;9.38;2.58;;;;;;;19.95;62.39;99300.45;4167084;84;28945;-83
2022/10/04 07:08:31;;;;;;;6.28;2.47;;;;;;;20.09;61.28;99314.23;4237479;83;28600;-84
2022/10/04 07:14:40;;;;;;;5.70;2.27;;;;;;;19.64;62.06;99332.31;4237504;83;28549;-84
2022/10/04 07:20:42;;;;;;;7.03;2.70;;;;;;;20.02;60.91;99342.66;4261369;82;28563;-84
2022/10/04 07:26:48;;;;;;;7.10;2.20;;;;;;;19.68;61.04;99344.83;4262044;82;28544;-84
2022/10/04 07:32:53;;;;;;;7.72;2.35;;;;;;;20.05;60.29;99349.47;4273785;82;28547;-84
2022/10/04 07:39:00;;;;;;;7.42;2.37;;;;;;;20.13;59.93;99365.77;4327232;82;28539;-83
2022/10/04 07:45:22;;;;;;;7.50;2.60;;;;;;;20.15;60.15;99371.75;4298317;81;28484;-83
2022/10/04 07:51:43;;;;;;;8.08;2.15;;;;;;;20.32;59.71;99366.68;4380355;79;28558;-83
2022/10/04 07:58:08;;;;;;;8.88;2.40;;;;;;;20.57;58.87;99368.91;4426636;80;28492;-83
2022/10/04 08:04:50;;;;;;;8.17;2.50;;;;;;;20.86;59.11;99387.16;4318416;81;28529;-83
2022/10/04 08:11:23;;;;;;;8.43;2.80;;;;;;;20.91;58.85;99389.59;4312498;81;28600;-83
2022/10/04 08:17:51;;;;;;;7.78;2.33;;;;;;;20.70;58.29;99402.09;4328759;81;28584;-82
2022/10/04 08:24:20;;;;;;;6.08;2.15;;;;;;;20.83;57.79;99409.61;4321317;81;28524;-83
2022/10/04 08:30:23;;;;;;;7.10;1.87;;;;;;;21.61;56.05;99411.38;4314438;81;28530;-83
2022/10/04 08:36:50;;;;;;;6.53;2.47;;;;;;;20.73;57.18;99417.36;4282772;81;28589;-82
2022/10/04 08:43:40;;;;;;;6.45;2.40;;;;;;;21.10;57.46;99419.69;4235908;82;28496;-83
2022/10/04 08:50:13;;;;;;;6.40;2.02;;;;;;;20.70;58.20;99432.14;4201710;83;28580;-83
2022/10/04 08:56:46;;;;;;;7.12;2.27;;;;;;;21.07;56.90;99432.02;4202144;83;28520;-83
2022/10/04 09:03:25;;;;;;;3.33;1.47;;;;;;;20.95;57.88;99432.45;4200887;83;28512;-83
2022/10/04 09:09:49;;;;;;;7.70;1.95;;;;;;;20.53;57.60;99442.94;4311863;81;28629;-83
2022/10/04 09:16:10;;;;;;;4.80;2.10;;;;;;;20.66;57.63;99446.92;4313394;81;28479;-83
2022/10/04 09:22:20;;;;;;;8.53;2.37;;;;;;;20.84;57.32;99452.23;4268180;80;28565;-84
2022/10/04 09:28:38;;;;;;;7.22;2.47;;;;;;;21.48;55.79;99455.31;4325779;81;28490;-83
2022/10/04 09:35:12;;;;;;;7.97;2.33;;;;;;;21.05;56.47;99458.83;4299855;81;28496;-83
2022/10/04 09:41:53;;;;;;;8.68;2.45;;;;;;;21.35;56.33;99469.69;4293704;81;28555;-83
2022/10/04 09:48:16;;;;;;;7.53;2.10;;;;;;;21.52;55.54;99473.33;4295024;81;28525;-83
2022/10/04 09:55:06;;;;;;;10.40;2.80;;;;;;;22.06;54.87;99482.14;4327087;81;28469;-84
2022/10/04 10:01:40;;;;;;;8.15;2.20;;;;;;;21.98;55.28;99492.42;4343200;80;28492;-84
2022/10/04 10:08:19;;;;;;;8.60;2.17;;;;;;;22.74;54.10;99488.73;4327565;82;28547;-84
2022/10/04 10:14:43;;;;;;;7.12;2.30;;;;;;;21.63;53.92;99489.03;4327647;82;28488;-84
2022/10/04 10:21:20;;;;;;;7.05;2.75;;;;;;;22.60;53.96;99490.09;4328222;82;28531;-83
2022/10/04 10:27:44;;;;;;;;;;;;;;;22.82;52.37;99490.78;4333216;82;28498;-83
2022/10/04 10:34:01;;;;;;;7.67;2.37;;;;;;;23.01;51.61;99496.75;4332198;82;20366;-84
2022/10/04 10:41:00;;;;;;;5.30;1.87;;;;;;;23.30;51.62;99503.08;4342342;82;28536;-83
2022/10/04 10:47:13;;;;;;;7.28;1.87;;;;;;;22.59;51.84;99509.00;4339604;82;28528;-83
2022/10/04 10:53:52;;;;;;;6.95;1.80;;;;;;;22.91;51.44;99507.91;4338732;82;28555;-83
2022/10/04 11:00:19;;;;;;;5.85;2.30;;;;;;;22.67;51.06;99506.14;4341924;82;28492;-83
2022/10/04 11:07:08;;;;;;;4.67;1.50;;;;;;;23.08;50.02;99519.11;4341319;82;28516;-84
2022/10/04 11:13:54;;;;;;;5.30;1.70;;;;;;;23.10;49.80;99513.30;4339188;82;28536;-83
2022/10/04 11:20:23;;;;;;;5.45;1.60;;;;;;;22.46;50.68;99510.57;4340713;82;28532;-85
2022/10/04 11:27:05;;;;;;;2.33;1.22;;;;;;;22.55;50.78;99518.40;4340240;82;28530;-84
2022/10/04 11:33:55;;;;;;;3.45;1.30;;;;;;;22.05;48.75;99535.28;4339971;82;28560;-84
2022/10/04 11:40:41;;;;;;;3.95;1.70;;;;;;;22.96;48.82;99533.84;4327045;82;28508;-84
2022/10/04 11:47:15;;;;;;;4.40;1.60;;;;;;;22.78;49.45;99531.42;4327475;82;28603;-83
2022/10/04 11:53:34;;;;;;;3.00;1.30;;;;;;;23.09;49.63;99528.95;4321015;82;28527;-83
2022/10/04 12:00:20;;;;;;;3.02;1.20;;;;;;;23.43;47.43;99526.97;4302217;82;28539;-83
2022/10/04 12:07:08;;;;;;;3.47;1.42;;;;;;;23.80;47.50;99536.64;4268740;81;29200;-83
2022/10/04 12:13:36;;;;;;;4.43;1.33;;;;;;;23.33;47.61;99537.58;4281209;81;37752;-83
2022/10/04 12:20:27;;;;;;;5.03;1.65;;;;;;;23.71;47.80;99541.23;4387007;80;28498;-83
2022/10/04 12:26:54;;;;;;;4.42;1.60;;;;;;;23.22;47.49;99535.58;4384884;80;28561;-82
2022/10/04 12:33:15;;;;;;;5.65;1.40;;;;;;;23.25;47.41;99545.11;4385450;80;28503;-83
2022/10/04 12:39:29;;;;;;;4.05;1.80;;;;;;;21.96;49.63;99558.41;4377603;80;28544;-83
2022/10/04 12:46:02;;;;;;;5.30;1.75;;;;;;;22.29;49.08;99553.58;4378297;80;28512;-83
2022/10/04 12:52:17;;;;;;;5.53;1.72;;;;;;;22.76;49.15;99553.67;4345016;80;28630;-83
2022/10/04 12:58:29;;;;;;;3.90;1.65;;;;;;;22.67;49.13;99545.31;4308576;79;28512;-83
2022/10/04 13:04:39;;;;;;;4.58;1.50;;;;;;;22.86;47.65;99551.30;4307601;79;28653;-84
2022/10/04 13:11:19;;;;;;;3.45;1.47;;;;;;;23.51;47.95;99552.88;4308094;79;28518;-83
2022/10/04 13:17:44;;;;;;;4.85;1.10;;;;;;;24.19;46.70;99567.39;4360651;79;28549;-83
2022/10/04 13:23:51;;;;;;;2.08;1.10;;;;;;;22.99;44.97;99570.27;4384042;79;28562;-83
2022/10/04 13:30:25;;;;;;;2.72;1.00;;;;;;;22.84;44.88;99568.61;4383691;79;28520;-84
2022/10/04 13:36:38;;;;;;;4.08;1.25;;;;;;;22.48;45.76;99576.83;4381304;79;28523;-84
2022/10/04 13:43:12;;;;;;;2.27;0.95;;;;;;;22.44;46.32;99575.80;4376627;81;28605;-84
2022/10/04 13:49:42;;;;;;;3.10;1.02;;;;;;;22.36;46.11;99573.73;4377602;80;28638;-84
2022/10/04 14:02:43;;;;;;;;;;;;;;;22.67;46.35;99585.05;4384586;80;29086;-83
2022/10/04 14:09:08;;;;;;;2.02;1.15;;;;;;;22.36;46.48;99588.23;4332565;81;20706;-83
2022/10/04 14:15:49;;;;;;;4.03;1.05;;;;;;;21.24;49.10;99590.15;4301957;82;28512;-83
2022/10/04 14:22:12;;;;;;;5.15;0.95;;;;;;;21.48;46.88;99606.30;4252906;82;28562;-83
2022/10/04 14:28:55;;;;;;;3.52;1.10;;;;;;;21.44;47.09;99593.20;4284282;81;28560;-83
2022/10/04 14:35:23;;;;;;;5.05;1.20;;;;;;;21.98;46.44;99595.88;4248832;81;28495;-84
2022/10/04 14:41:36;;;;;;;4.03;1.07;;;;;;;22.01;46.58;99596.64;4294710;81;28522;-83
2022/10/04 14:48:10;;;;;;;3.77;1.15;;;;;;;21.67;47.06;99597.63;4358376;80;28535;-84
2022/10/04 14:54:25;;;;;;;5.47;1.30;;;;;;;21.34;46.99;99604.25;4309815;81;28539;-85
2022/10/04 15:00:58;;;;;;;3.87;1.02;;;;;;;21.56;47.29;99596.09;4372830;80;28519;-85
2022/10/04 15:07:19;;;;;;;2.22;1.17;;;;;;;21.71;46.42;99600.59;4327992;81;28499;-85
2022/10/04 15:13:54;;;;;;;3.15;1.00;;;;;;;21.37;47.58;99609.70;4275871;82;28622;-85
2022/10/04 15:20:23;;;;;;;4.03;1.20;;;;;;;20.92;47.93;99618.84;4307037;81;36890;-84
2022/10/04 15:26:35;;;;;;;5.00;2.05;;;;;;;20.57;48.71;99627.55;4372660;80;28500;-84
2022/10/04 15:33:26;;;;;;;3.22;1.30;;;;;;;20.65;49.70;99636.52;4371009;80;28608;-85
2022/10/04 15:40:17;;;;;;;3.80;1.65;;;;;;;20.46;50.54;99637.72;4375846;79;28508;-85
2022/10/04 15:46:47;;;;;;;5.35;1.37;;;;;;;20.28;51.11;99637.30;4360394;80;28531;-84
2022/10/04 15:53:10;;;;;;;4.47;1.50;;;;;;;20.36;51.51;99647.33;4342830;80;28469;-84
2022/10/04 15:59:29;;;;;;;4.50;1.52;;;;;;;19.83;52.79;99654.91;4363929;79;28532;-86
2022/10/04 16:05:59;;;;;;;5.33;1.65;;;;;;;20.11;52.33;99660.02;4363633;80;28559;-86
2022/10/04 16:12:38;;;;;;;5.50;1.70;;;;;;;20.17;52.13;99667.91;4346067;80;28565;-80
2022/10/04 16:18:55;;;;;;;6.87;1.52;;;;;;;20.02;54.37;99666.63;4368944;78;28537;-80
2022/10/04 16:25:20;;;;;;;5.65;1.62;;;;;;;19.78;55.45;99668.55;4342124;80;28513;-80
2022/10/04 16:31:45;;;;;;;8.27;1.60;;;;;;;19.63;56.79;99663.98;4373541;80;33907;-80
2022/10/04 16:38:17;;;;;;;6.72;1.57;;;;;;;19.44;56.61;99671.91;4359286;79;28554;-82
2022/10/04 16:44:41;;;;;;;6.53;1.60;;;;;;;19.25;56.84;99677.91;4358169;79;28520;-82
2022/10/04 16:51:08;;;;;;;6.35;1.80;;;;;;;18.93;57.11;99685.25;4362894;80;28524;-82
2022/10/04 16:57:21;;;;;;;9.65;1.82;;;;;;;18.62;57.18;99686.56;4350154;80;28534;-78
2022/10/04 17:03:32;;;;;;;8.10;1.70;;;;;;;18.59;57.44;99695.28;4359946;79;28534;-86
2022/10/04 17:10:39;;;;;;;3.67;1.95;;;;;;;18.24;58.39;99703.05;4324298;80;28535;-84
2022/10/04 17:16:57;;;;;;;9.35;1.85;;;;;;;18.15;58.35;99711.98;4304673;80;28501;-84
2022/10/04 17:23:13;;;;;;;4.78;1.85;;;;;;;18.03;59.01;99719.81;4301341;81;28530;-79
2022/10/04 17:29:35;;;;;;;4.47;2.20;;;;;;;17.70;59.66;99727.21;4367857;80;28504;-79
2022/10/04 17:36:02;;;;;;;6.90;2.02;;;;;;;17.70;59.72;99728.05;4256697;81;28531;-79
2022/10/04 17:42:30;;;;;;;6.72;2.10;;;;;;;17.68;59.66;99738.34;4295253;80;28609;-79
2022/10/04 17:55:37;;;;;;;4.55;1.80;;;;;;;17.64;59.41;99752.72;4325995;79;28591;-80
2022/10/04 18:01:46;;;;;;;7.00;2.52;;;;;;;17.48;59.50;99759.41;4367085;81;28974;-78
2022/10/04 18:07:59;;;;;;;6.10;2.42;;;;;;;17.26;59.53;99772.55;4361258;81;28506;-79
2022/10/04 18:14:36;;;;;;;7.20;2.92;;;;;;;17.23;59.65;99773.59;4325749;80;28516;-81
2022/10/04 18:20:57;;;;;;;10.75;4.87;;;;;;;16.94;60.42;99790.94;4345528;79;28575;-79
2022/10/04 18:27:03;;;;;;;6.35;2.90;;;;;;;16.88;60.17;99792.50;4357193;81;28597;-79
2022/10/04 18:33:11;;;;;;;10.43;3.22;;;;;;;16.89;60.44;99807.16;4343125;81;28565;-78
2022/10/04 18:39:23;;;;;;;12.63;4.95;;;;;;;16.88;60.22;99805.52;4328826;81;28984;-78
2022/10/04 18:45:33;;;;;;;7.35;3.20;;;;;;;16.76;60.19;99804.84;4310039;81;28517;-78
2022/10/04 18:52:19;;;;;;;17.82;8.98;;;;;;;16.61;60.28;99806.31;4303750;81;28571;-81
2022/10/04 19:05:50;;;;;;;18.17;8.55;;;;;;;16.33;61.31;99801.33;4329052;80;20238;-89
2022/10/04 19:12:05;;;;;;;13.03;5.00;;;;;;;16.17;61.12;99816.02;4284762;81;28543;-78
2022/10/04 19:18:51;;;;;;;14.43;6.78;;;;;;;16.16;60.91;99824.44;4283742;81;28532;-78
2022/10/04 19:25:26;;;;;;;11.53;5.47;;;;;;;16.23;60.73;99814.76;4219293;82;28624;-76
2022/10/04 19:31:39;;;;;;;14.43;6.00;;;;;;;16.03;60.68;99829.66;4300411;81;28525;-75
2022/10/04 19:38:12;;;;;;;11.33;6.55;;;;;;;16.01;60.95;99829.09;4229556;82;28587;-84
2022/10/04 19:44:32;;;;;;;15.40;6.53;;;;;;;15.94;61.39;99839.27;4281380;81;28657;-77
2022/10/04 19:50:45;;;;;;;10.65;5.55;;;;;;;15.85;61.65;99843.72;4141746;83;28576;-76
2022/10/04 19:56:49;;;;;;;11.88;5.17;;;;;;;15.94;61.77;99848.77;4286690;81;28522;-77
2022/10/04 20:02:52;;;;;;;9.23;4.90;;;;;;;15.89;61.25;99850.83;4276697;81;28583;-74
2022/10/04 20:09:03;;;;;;;9.88;5.05;;;;;;;15.70;61.28;99861.10;4284123;81;28565;-77
2022/10/04 20:15:38;;;;;;;11.08;5.33;;;;;;;15.78;61.29;99860.70;4278657;81;28582;-76
2022/10/04 20:21:39;;;;;;;10.25;5.42;;;;;;;15.90;60.94;99879.62;4291295;81;28557;-75
2022/10/04 20:27:46;;;;;;;11.20;5.40;;;;;;;15.93;60.74;99876.44;4292162;81;28503;-75
2022/10/04 20:33:51;;;;;;;13.20;6.33;;;;;;;15.97;60.74;99879.45;4294384;81;28544;-75
2022/10/04 20:39:55;;;;;;;;;;;;;;;16.30;59.93;99890.83;4299793;81;28518;-76
2022/10/04 20:45:57;;;;;;;10.75;5.85;;;;;;;15.94;60.21;99890.28;4291055;81;20624;-75
2022/10/04 20:52:03;;;;;;;19.67;7.33;;;;;;;15.92;59.78;99897.01;4289471;81;28590;-76
2022/10/04 20:58:26;;;;;;;12.88;6.45;;;;;;;15.68;61.15;99902.55;4292608;81;28528;-76
2022/10/04 21:04:45;;;;;;;11.33;5.80;;;;;;;15.52;61.19;99907.67;4292486;81;28624;-76
2022/10/04 21:11:08;;;;;;;10.50;5.80;;;;;;;15.77;60.40;99907.83;4282382;81;28554;-75
2022/10/04 21:17:36;;;;;;;14.07;6.45;;;;;;;15.60;60.95;99913.22;4295717;81;28627;-76
2022/10/04 21:23:40;;;;;;;10.35;5.80;;;;;;;15.49;61.05;99919.00;4269570;82;28532;-76
2022/10/04 21:29:43;;;;;;;14.87;6.28;;;;;;;15.52;60.79;99917.70;4292468;81;28490;-76
2022/10/04 21:35:46;;;;;;;14.00;6.10;;;;;;;15.55;60.69;99923.98;4295357;81;28625;-75
2022/10/04 21:41:48;;;;;;;9.63;6.22;;;;;;;15.45;60.89;99924.08;4346071;80;28554;-75
2022/10/04 21:47:49;;;;;;;14.73;6.75;;;;;;;15.40;61.06;99929.94;4248498;82;28595;-75
2022/10/04 21:53:54;;;;;;;13.80;6.95;;;;;;;15.37;61.09;99942.07;4250476;82;28498;-74
2022/10/04 21:59:55;;;;;;;13.90;6.42;;;;;;;14.98;61.79;99941.81;4253398;82;28605;-75
2022/10/04 22:05:58;;;;;;;11.63;7.15;;;;;;;14.78;62.63;99951.97;4252497;80;28545;-75
2022/10/04 22:11:59;;;;;;;14.73;7.50;;;;;;;14.80;62.98;99946.84;4347654;80;28550;-75
2022/10/04 22:18:02;;;;;;;14.05;7.50;;;;;;;15.16;62.47;99947.63;4352149;80;28495;-76
2022/10/04 22:24:09;;;;;;;16.90;8.45;;;;;;;14.98;62.91;99945.35;4337546;80;28489;-75
2022/10/04 22:30:22;;;;;;;13.28;6.80;;;;;;;15.04;62.85;99948.45;4349461;80;28558;-75
2022/10/04 22:36:36;;;;;;;14.95;7.45;;;;;;;14.74;62.26;99952.16;4350900;80;28561;-76
2022/10/04 22:42:42;;;;;;;17.87;8.15;;;;;;;14.54;62.57;99951.11;4350171;80;28616;-75
2022/10/04 22:48:48;;;;;;;13.60;7.70;;;;;;;14.68;63.41;99944.94;4354952;80;28498;-75
2022/10/04 22:54:56;;;;;;;;;;;;;;;14.53;62.61;99930.53;4355044;80;28546;-76
2022/10/04 23:00:55;;;;;;;12.07;6.70;;;;;;;14.52;62.09;99932.11;4349038;80;20649;-75
2022/10/04 23:06:58;;;;;;;12.45;6.55;;;;;;;14.67;61.43;99922.16;4354251;80;28489;-76
2022/10/04 23:13:00;;;;;;;12.85;6.42;;;;;;;14.35;61.46;99906.58;4349173;80;28571;-75
2022/10/04 23:19:09;;;;;;;11.12;6.12;;;;;;;14.55;61.02;99897.83;4358972;80;28512;-76
2022/10/04 23:25:24;;;;;;;12.37;6.92;;;;;;;14.36;61.16;99909.57;4346819;80;28521;-75
2022/10/04 23:31:26;;;;;;;15.03;7.25;;;;;;;14.33;61.77;99907.34;4352566;79;28526;-76
2022/10/04 23:37:31;;;;;;;13.48;7.25;;;;;;;14.27;62.05;99924.53;4344017;80;28506;-77
2022/10/04 23:43:35;;;;;;;12.37;6.67;;;;;;;14.34;62.77;99933.34;4286013;81;28554;-75
2022/10/04 23:49:36;;;;;;;13.75;6.60;;;;;;;14.46;61.49;99933.88;4317519;79;28535;-75
2022/10/04 23:55:42;;;;;;;11.03;6.55;;;;;;;14.42;61.37;99940.82;4330602;81;28594;-75
